Enterprise, MS (39330)

3:18 AM CDT on September 22, 2014 (GMT -0500)
JRHC - Snell | Change Station
CLOSE
Current Station
Personal Weather Station
Location: Snell, MS
Elevation: 427 ft
Nearby Weather Stations

Elev 427 ft 32.19 °N, 88.50 °W | Updated 12 seconds ago

Partly Cloudy
Partly Cloudy
72.5 °F
Feels Like 72 °F
N
0.0
Wind Variable Wind from WSW
Gusts 3.0 mph

Today
High -- | Low -- °F
--% Chance of Precip.
Yesterday
High -- | Low -- °F
Precip. -- in
6:43 AM 6:51 PM
Waning Crescent, 3% visible
Pressure 30.01 in
Visibility 10.0 miles
Clouds Scattered Clouds 6000 ft
Mostly Cloudy 9000 ft
Heat Index 72 °F
Dew Point 67 °F
Humidity 82%
Rainfall 0.00 in
Snow Depth Not available.
UV 0 out of 12
Pollen 9.10 out of 12
Air Quality Not available.
Flu Activity Not available.
METAR KMEI 220758Z AUTO 00000KT 10SM SCT060 BKN090 22/20 A3002 RMK AO2 SLP161 T02220200

More Conditions Fewer Conditions

Pressure 30.01 in
Visibility 10.0 miles
Clouds Scattered Clouds 6000 ft
Mostly Cloudy 9000 ft
Heat Index 72 °F
Dew Point 67 °F
Humidity 82%
Rainfall 0.00 in
Snow Depth Not available.
UV 0 out of 12
Pollen 9.10 out of 12
Air Quality Not available.
Flu Activity Not available.
METAR KMEI 220758Z AUTO 00000KT 10SM SCT060 BKN090 22/20 A3002 RMK AO2 SLP161 T02220200

More Conditions Fewer Conditions

10-Day Weather Forecast

Almanac

Astronomy

Sep. 22, 2014 Rise Set
Actual Time 6:43 AM CDT 6:51 PM CDT
Civil Twilight 6:18 AM CDT 7:15 PM CDT
Nautical Twilight 5:50 AM CDT 7:44 PM CDT
Astronomical Twilight 5:21 AM CDT 8:13 PM CDT
Moon 5:15 AM CDT 5:57 PM CDT
Length of Visible Light 12h 57m
Length of Day
12h 08m
Tomorrow will be 1m 58s shorter.
Waning Crescent, 3% of the Moon is Illuminated
Today
Waning Crescent
Sep 24
New
Oct 1
First Quarter
Oct 8
Full
Oct 15
Last Quarter

Today's Extremes

State Highs State Lows

Community

WunderPhotos

Upload Photos

1,755,395 photos uploaded!

Nearby

Snow Depth

Station Depth Elevation
No new snow has been reported.

Earthquake Activity

City Distance Mag. Time & Date
No recent earthquake activity has been reported nearby.
Minimum magnitude displayed is 2.5.

Coastal Water Temperatures

Place Temperature
No Stations Reporting

Nearby Weather Stations